Terminal Aerodrome Forecast
Issued by NWS Binghamton, NY

Home | Current Version | Previous Version | Text Only | Print | Product List | Glossary On
Versions: 1 2 3 4 5 6 7 8 9 10 11 12 13 14 15 16 17 18 19 20
000
FTUS41 KBGM 221400 AAA
TAFAVP
TAF AMD
KAVP 221432Z 2215/2312 VRB03KT P6SM BKN015
      TEMPO 2215/2216 SCT015 BKN030
     FM221600 21004KT P6SM BKN040
      TEMPO 2219/2223 5SM SHRA BR OVC025
     FM230300 VRB03KT 5SM BR BKN025=

USA.gov is the U.S. government's official web portal to all federal, state and local government web resources and services.